createdAt,value
2023-02-24T00:02:25.936Z,28.35
2023-02-24T00:05:31.207Z,26.80
2023-02-24T00:08:36.350Z,26.90
2023-02-24T00:11:45.240Z,28.77
2023-02-24T00:14:50.983Z,21.52
2023-02-24T00:17:56.060Z,26.33
2023-02-24T00:21:08.626Z,21.98
2023-02-24T00:24:14.162Z,26.02
2023-02-24T00:27:22.152Z,25.90
2023-02-24T00:30:29.315Z,22.42
2023-02-24T00:33:34.706Z,21.90
2023-02-24T00:36:40.020Z,23.65
2023-02-24T00:39:45.481Z,19.63
2023-02-24T00:42:54.540Z,24.55
2023-02-24T00:45:59.600Z,19.48
2023-02-24T00:49:06.001Z,25.17
2023-02-24T00:52:13.906Z,21.30
2023-02-24T00:55:19.716Z,20.05
2023-02-24T00:58:30.219Z,20.92
2023-02-24T01:01:36.501Z,20.70
2023-02-24T01:04:42.760Z,22.20
2023-02-24T01:07:48.126Z,17.98
2023-02-24T01:11:12.129Z,16.38
2023-02-24T01:14:20.970Z,21.20
2023-02-24T01:17:26.401Z,22.80
2023-02-24T01:20:33.579Z,19.05
2023-02-24T01:23:39.061Z,22.65
2023-02-24T01:26:44.443Z,19.40
2023-02-24T01:29:52.438Z,17.05
2023-02-24T01:32:58.187Z,22.60
2023-02-24T01:36:13.271Z,20.20
2023-02-24T01:39:18.823Z,16.70
2023-02-24T01:42:25.785Z,20.63
2023-02-24T01:45:37.029Z,17.55
2023-02-24T01:48:43.202Z,16.13
2023-02-24T01:51:50.426Z,21.10
2023-02-24T01:54:58.630Z,19.23
2023-02-24T01:58:04.991Z,23.52
2023-02-24T02:01:14.653Z,22.20
2023-02-24T02:04:21.847Z,21.50
2023-02-24T02:07:29.216Z,18.95
2023-02-24T02:10:35.304Z,23.83
2023-02-24T02:13:43.939Z,23.42
2023-02-24T02:16:57.315Z,19.20
2023-02-24T02:20:16.226Z,17.20
2023-02-24T02:23:51.614Z,18.08
2023-02-24T02:27:07.869Z,21.05
2023-02-24T02:30:21.657Z,16.50
2023-02-24T02:33:43.286Z,19.92
2023-02-24T02:36:58.920Z,17.17
2023-02-24T02:40:09.143Z,15.32
2023-02-24T02:43:18.700Z,17.98
2023-02-24T02:46:35.109Z,20.67
2023-02-24T02:49:42.380Z,20.48
2023-02-24T02:52:54.359Z,16.77
2023-02-24T02:56:03.725Z,14.05
2023-02-24T02:59:13.118Z,17.92
2023-02-24T03:02:21.686Z,17.88
2023-02-24T03:05:31.848Z,18.50
2023-02-24T03:08:43.626Z,17.73
2023-02-24T03:11:53.395Z,17.77
2023-02-24T03:15:02.280Z,18.52
2023-02-24T03:18:11.500Z,18.70
2023-02-24T03:21:20.872Z,20.20
2023-02-24T03:24:29.486Z,18.90
2023-02-24T03:27:41.447Z,17.63
2023-02-24T03:30:52.609Z,17.75
2023-02-24T03:37:06.419Z,19.73
2023-02-24T03:40:16.535Z,18.98
2023-02-24T03:43:26.222Z,16.50
2023-02-24T03:46:34.223Z,18.05
2023-02-24T03:49:43.844Z,17.35
2023-02-24T03:52:57.329Z,17.00
2023-02-24T03:56:11.710Z,16.40
2023-02-24T03:59:28.799Z,19.25
2023-02-24T04:02:37.045Z,19.95
2023-02-24T04:05:48.849Z,18.75
2023-02-24T04:08:56.460Z,18.33
2023-02-24T04:12:09.686Z,20.92
2023-02-24T04:15:21.399Z,17.05
2023-02-24T04:18:29.686Z,19.38
2023-02-24T04:21:37.216Z,21.60
2023-02-24T04:24:44.563Z,22.77
2023-02-24T04:27:52.641Z,15.10
2023-02-24T04:31:01.089Z,20.00
2023-02-24T04:34:09.634Z,18.10
2023-02-24T04:37:17.991Z,17.90
2023-02-24T04:40:24.988Z,16.63
2023-02-24T04:43:33.133Z,18.50
2023-02-24T04:49:44.848Z,16.98
2023-02-24T04:52:50.706Z,16.05
2023-02-24T04:55:56.603Z,18.05
2023-02-24T04:59:04.575Z,17.30
2023-02-24T05:02:10.142Z,19.13
2023-02-24T05:05:15.429Z,19.63
2023-02-24T05:08:21.548Z,17.02
2023-02-24T05:11:27.651Z,16.42
2023-02-24T05:14:35.704Z,18.88
2023-02-24T05:17:41.184Z,18.67
2023-02-24T05:21:01.725Z,18.45
2023-02-24T05:24:07.761Z,22.05
2023-02-24T05:27:13.078Z,18.08
2023-02-24T05:30:21.443Z,19.23
2023-02-24T05:33:29.402Z,16.20
2023-02-24T05:36:35.758Z,24.65
2023-02-24T05:39:41.285Z,21.40
2023-02-24T05:42:46.653Z,17.38
2023-02-24T05:45:54.346Z,17.67
2023-02-24T05:49:00.234Z,22.75
2023-02-24T05:52:09.150Z,21.27
2023-02-24T05:55:14.884Z,20.98
2023-02-24T05:58:20.100Z,20.38
2023-02-24T06:01:30.690Z,17.88
2023-02-24T06:04:51.606Z,19.05
2023-02-24T06:08:05.418Z,18.23
2023-02-24T06:11:11.935Z,19.50
2023-02-24T06:14:17.402Z,16.90
2023-02-24T06:17:25.874Z,17.17
2023-02-24T06:20:33.473Z,26.92
2023-02-24T06:23:39.473Z,20.40
2023-02-24T06:26:45.175Z,24.60
2023-02-24T06:29:52.115Z,20.40
2023-02-24T06:32:59.783Z,24.33
2023-02-24T06:36:07.042Z,27.45
2023-02-24T06:39:14.820Z,24.27
2023-02-24T06:42:20.206Z,32.95
2023-02-24T06:45:26.559Z,22.50
2023-02-24T06:48:34.984Z,21.17
2023-02-24T06:51:39.996Z,25.13
2023-02-24T06:54:47.798Z,24.15
2023-02-24T07:01:03.130Z,25.15
2023-02-24T07:04:27.886Z,23.98
2023-02-24T07:07:33.786Z,25.63
2023-02-24T07:10:39.325Z,23.50
2023-02-24T07:13:44.898Z,25.10
2023-02-24T07:16:55.027Z,27.80
2023-02-24T07:20:11.773Z,23.98
2023-02-24T07:23:17.314Z,26.75
2023-02-24T07:26:24.419Z,27.05
2023-02-24T07:29:29.981Z,29.55
2023-02-24T07:32:35.692Z,25.55
2023-02-24T07:35:43.727Z,23.13
2023-02-24T07:38:49.024Z,25.48
2023-02-24T07:41:55.839Z,25.88
2023-02-24T07:45:00.960Z,26.08
2023-02-24T07:48:08.376Z,21.52
2023-02-24T07:51:17.489Z,28.40
2023-02-24T07:54:23.526Z,27.77
2023-02-24T07:57:29.140Z,26.38
2023-02-24T08:00:50.814Z,29.55
2023-02-24T08:03:56.342Z,25.30
2023-02-24T08:07:05.173Z,26.80
2023-02-24T08:10:24.665Z,24.83
2023-02-24T08:13:37.686Z,31.98
2023-02-24T08:16:43.175Z,33.33
2023-02-24T08:19:49.417Z,27.17
2023-02-24T08:22:57.449Z,28.63
2023-02-24T08:26:06.240Z,28.23
2023-02-24T08:29:11.544Z,24.35
2023-02-24T08:32:19.667Z,30.23
2023-02-24T08:35:32.098Z,27.45
2023-02-24T08:38:45.071Z,28.00
2023-02-24T08:41:51.806Z,24.45
2023-02-24T08:44:58.679Z,29.27
2023-02-24T08:48:18.466Z,23.02
2023-02-24T08:51:29.141Z,25.05
2023-02-24T08:54:48.249Z,25.40
2023-02-24T08:57:56.501Z,29.90
2023-02-24T09:01:04.080Z,23.33
2023-02-24T09:04:11.854Z,27.23
2023-02-24T09:07:18.386Z,28.52
2023-02-24T09:10:28.986Z,26.50
2023-02-24T09:13:36.065Z,23.83
2023-02-24T09:17:01.127Z,24.00
2023-02-24T09:20:39.263Z,24.38
2023-02-24T09:23:46.280Z,23.00
2023-02-24T09:26:58.809Z,29.50
2023-02-24T09:30:08.373Z,30.38
2023-02-24T09:33:21.540Z,26.45
2023-02-24T09:36:30.822Z,28.17
2023-02-24T09:39:57.809Z,25.73
2023-02-24T09:43:11.419Z,29.35
2023-02-24T09:46:17.747Z,28.20
2023-02-24T09:49:24.145Z,26.13
2023-02-24T09:52:39.987Z,26.52
2023-02-24T09:56:00.517Z,24.60
2023-02-24T09:59:14.646Z,25.88
2023-02-24T10:02:31.462Z,26.98
2023-02-24T10:05:39.459Z,22.63
2023-02-24T10:08:47.060Z,26.85
2023-02-24T10:12:04.670Z,26.13
2023-02-24T10:15:32.504Z,26.40
2023-02-24T10:18:42.920Z,27.35
2023-02-24T10:22:00.646Z,23.85
2023-02-24T10:25:14.270Z,24.85
2023-02-24T10:28:25.377Z,32.25
2023-02-24T10:31:35.934Z,30.10
2023-02-24T10:34:44.971Z,25.60
2023-02-24T10:37:50.505Z,32.25
2023-02-24T10:41:00.027Z,29.00
2023-02-24T10:44:05.336Z,27.80
2023-02-24T10:47:14.719Z,31.45
2023-02-24T10:50:24.511Z,25.63
2023-02-24T10:53:35.135Z,31.77
2023-02-24T10:56:55.589Z,24.73
2023-02-24T11:00:13.626Z,25.45
2023-02-24T11:06:58.136Z,26.48
2023-02-24T11:10:11.819Z,28.02
2023-02-24T11:13:31.243Z,21.42
2023-02-24T11:16:56.144Z,29.13
2023-02-24T11:20:02.089Z,32.75
2023-02-24T11:23:16.698Z,28.25
2023-02-24T11:26:23.964Z,28.08
2023-02-24T11:29:34.277Z,28.90
2023-02-24T11:32:46.612Z,29.05
2023-02-24T11:35:55.551Z,27.70
2023-02-24T11:39:17.648Z,30.65
2023-02-24T11:42:29.167Z,32.50
2023-02-24T11:45:36.244Z,26.40
2023-02-24T11:48:42.667Z,30.38
2023-02-24T11:51:48.133Z,28.52
2023-02-24T11:54:57.205Z,28.40
2023-02-24T11:58:03.166Z,27.13
2023-02-24T12:01:11.504Z,26.88
2023-02-24T12:04:22.365Z,32.25
2023-02-24T12:07:29.266Z,25.40
2023-02-24T12:10:38.705Z,28.63
2023-02-24T12:13:47.733Z,29.08
2023-02-24T12:16:57.762Z,31.00
2023-02-24T12:20:06.132Z,32.22
2023-02-24T12:23:18.400Z,28.60
2023-02-24T12:26:27.405Z,29.75
2023-02-24T12:29:48.858Z,29.38
2023-02-24T12:33:00.808Z,33.58
2023-02-24T12:36:08.739Z,30.67
2023-02-24T12:39:18.326Z,30.08
2023-02-24T12:42:29.795Z,28.23
2023-02-24T12:45:39.512Z,34.03
2023-02-24T12:48:59.804Z,31.23
2023-02-24T12:52:10.658Z,31.48
2023-02-24T12:55:22.530Z,32.47
2023-02-24T12:58:31.936Z,33.85
2023-02-24T13:01:39.898Z,31.08
2023-02-24T13:04:51.696Z,35.17
2023-02-24T13:08:08.487Z,35.53
2023-02-24T13:11:17.100Z,33.90
2023-02-24T13:14:29.046Z,30.92
2023-02-24T13:17:34.433Z,32.30
2023-02-24T13:20:43.119Z,34.58
2023-02-24T13:23:58.005Z,31.08
2023-02-24T13:27:11.051Z,32.70
2023-02-24T13:30:31.342Z,30.45
2023-02-24T13:33:39.809Z,35.72
2023-02-24T13:36:49.936Z,37.88
2023-02-24T13:39:55.232Z,30.98
2023-02-24T13:43:02.336Z,33.15
2023-02-24T13:46:19.310Z,39.50
2023-02-24T13:49:36.636Z,34.35
2023-02-24T13:52:46.972Z,32.88
2023-02-24T13:55:58.429Z,33.10
2023-02-24T13:59:19.113Z,36.67
2023-02-24T14:02:26.183Z,38.20
2023-02-24T14:05:37.401Z,32.38
2023-02-24T14:08:45.576Z,34.70
2023-02-24T14:11:53.640Z,38.33
2023-02-24T14:14:59.682Z,32.00
2023-02-24T14:18:05.917Z,33.58
2023-02-24T14:21:23.773Z,33.03
2023-02-24T14:24:30.439Z,35.33
2023-02-24T14:27:35.556Z,33.17
2023-02-24T14:30:42.180Z,35.10
2023-02-24T14:33:48.354Z,32.70
2023-02-24T14:36:58.422Z,29.80
2023-02-24T14:40:06.083Z,32.63
2023-02-24T14:43:17.766Z,29.25
2023-02-24T14:46:23.734Z,34.33
2023-02-24T14:49:30.277Z,31.17
2023-02-24T14:52:42.685Z,36.50
2023-02-24T14:55:50.264Z,31.15
2023-02-24T14:58:57.450Z,31.57
2023-02-24T15:02:03.229Z,34.10
2023-02-24T15:05:11.659Z,32.65
2023-02-24T15:08:26.425Z,30.52
2023-02-24T15:11:32.803Z,31.15
2023-02-24T15:14:38.014Z,32.85
2023-02-24T15:17:44.073Z,33.58
2023-02-24T15:20:49.751Z,35.28
2023-02-24T15:24:04.677Z,35.53
2023-02-24T15:27:23.393Z,36.38
2023-02-24T15:30:30.701Z,32.75
2023-02-24T15:33:38.391Z,38.45
2023-02-24T15:36:43.463Z,38.03
2023-02-24T15:39:53.986Z,31.10
2023-02-24T15:42:59.894Z,31.30
2023-02-24T15:46:16.285Z,34.35
2023-02-24T15:49:21.494Z,40.25
2023-02-24T15:52:28.899Z,33.88
2023-02-24T15:55:36.787Z,34.35
2023-02-24T15:58:44.552Z,33.55
2023-02-24T16:01:52.053Z,37.58
2023-02-24T16:04:57.404Z,34.67
2023-02-24T16:08:02.729Z,35.55
2023-02-24T16:11:10.931Z,36.42
2023-02-24T16:14:18.029Z,40.53
2023-02-24T16:17:28.247Z,37.70
2023-02-24T16:20:37.636Z,36.83
2023-02-24T16:23:43.402Z,37.72
2023-02-24T16:26:51.166Z,43.50
2023-02-24T16:29:56.824Z,35.75
2023-02-24T16:33:02.984Z,37.38
2023-02-24T16:36:13.183Z,35.80
2023-02-24T16:39:18.357Z,42.58
2023-02-24T16:42:26.215Z,37.03
2023-02-24T16:45:32.435Z,39.80
2023-02-24T16:48:38.961Z,39.30
2023-02-24T16:51:44.307Z,34.40
2023-02-24T16:54:49.845Z,35.15
2023-02-24T16:57:57.677Z,36.83
2023-02-24T17:01:03.501Z,41.85
2023-02-24T17:04:10.131Z,33.40
2023-02-24T17:07:16.622Z,33.72
2023-02-24T17:10:22.447Z,35.55
2023-02-24T17:13:30.818Z,35.47
2023-02-24T17:16:39.701Z,39.83
2023-02-24T17:19:45.224Z,33.42
2023-02-24T17:22:51.012Z,38.92
2023-02-24T17:25:57.651Z,37.10
2023-02-24T17:29:06.479Z,34.45
2023-02-24T17:32:11.752Z,36.80
2023-02-24T17:35:17.309Z,33.67
2023-02-24T17:38:24.373Z,35.58
2023-02-24T17:41:30.001Z,37.47
2023-02-24T17:44:37.832Z,36.70
2023-02-24T17:47:43.583Z,38.35
2023-02-24T17:50:48.920Z,35.05
2023-02-24T17:53:53.918Z,37.88
2023-02-24T17:56:59.250Z,38.55
2023-02-24T18:00:07.897Z,41.70
2023-02-24T18:03:19.656Z,37.00
2023-02-24T18:06:25.224Z,36.53
2023-02-24T18:09:30.555Z,38.35
2023-02-24T18:12:35.808Z,36.88
2023-02-24T18:15:44.260Z,38.70
2023-02-24T18:18:50.249Z,41.47
2023-02-24T18:21:55.429Z,33.45
2023-02-24T18:25:01.230Z,34.25
2023-02-24T18:31:19.670Z,37.85
2023-02-24T18:34:25.654Z,36.35
2023-02-24T18:37:30.872Z,36.92
2023-02-24T18:40:38.495Z,34.30
2023-02-24T18:43:44.772Z,37.28
2023-02-24T18:46:52.804Z,35.20
2023-02-24T18:49:58.166Z,31.88
2023-02-24T18:53:03.883Z,42.42
2023-02-24T18:56:10.701Z,33.88
2023-02-24T18:59:15.912Z,34.72
2023-02-24T19:02:23.778Z,36.25
2023-02-24T19:05:37.905Z,37.28
2023-02-24T19:08:44.381Z,33.97
2023-02-24T19:11:49.514Z,38.33
2023-02-24T19:14:55.533Z,35.17
2023-02-24T19:18:03.563Z,33.60
2023-02-24T19:21:09.524Z,32.72
2023-02-24T19:24:15.032Z,33.72
2023-02-24T19:27:20.559Z,32.30
2023-02-24T19:30:25.979Z,35.40
2023-02-24T19:33:33.975Z,31.65
2023-02-24T19:36:41.270Z,35.30
2023-02-24T19:39:46.632Z,32.60
2023-02-24T19:42:53.602Z,31.00
2023-02-24T19:45:58.926Z,33.97
2023-02-24T19:49:07.135Z,35.35
2023-02-24T19:52:12.777Z,36.17
2023-02-24T19:55:18.229Z,36.90
2023-02-24T19:58:23.310Z,32.83
2023-02-24T20:01:29.820Z,35.22
2023-02-24T20:04:38.064Z,38.22
2023-02-24T20:10:49.134Z,38.35
2023-02-24T20:13:55.022Z,33.53
2023-02-24T20:17:00.879Z,34.85
2023-02-24T20:20:09.914Z,34.47
2023-02-24T20:23:15.227Z,33.55
2023-02-24T20:26:20.841Z,33.58
2023-02-24T20:29:26.541Z,36.13
2023-02-24T20:32:32.225Z,35.00
2023-02-24T20:35:41.440Z,30.10
2023-02-24T20:38:46.833Z,32.45
2023-02-24T20:41:52.285Z,29.40
2023-02-24T20:44:57.945Z,34.40
2023-02-24T20:48:03.247Z,30.98
2023-02-24T20:51:12.642Z,32.15
2023-02-24T20:54:18.046Z,31.13
2023-02-24T20:57:23.637Z,30.77
2023-02-24T21:00:29.388Z,32.92
2023-02-24T21:03:34.431Z,31.88
2023-02-24T21:06:42.653Z,30.88
2023-02-24T21:09:47.851Z,35.67
2023-02-24T21:12:53.529Z,32.22
2023-02-24T21:15:58.968Z,32.92
2023-02-24T21:19:04.399Z,38.75
2023-02-24T21:22:12.551Z,32.13
2023-02-24T21:25:17.672Z,35.78
2023-02-24T21:28:23.110Z,35.60
2023-02-24T21:31:29.284Z,32.67
2023-02-24T21:34:34.851Z,33.40
2023-02-24T21:37:42.959Z,34.40
2023-02-24T21:40:49.511Z,35.65
2023-02-24T21:43:55.421Z,34.35
2023-02-24T21:47:00.812Z,33.85
2023-02-24T21:50:07.620Z,31.35
2023-02-24T21:53:16.173Z,36.78
2023-02-24T21:56:22.140Z,34.75
2023-02-24T21:59:28.190Z,37.50
2023-02-24T22:02:33.425Z,38.75
2023-02-24T22:05:38.784Z,35.25
2023-02-24T22:08:47.132Z,37.65
2023-02-24T22:11:52.853Z,36.25
2023-02-24T22:14:58.045Z,39.97
2023-02-24T22:18:03.583Z,39.45
2023-02-24T22:21:10.317Z,34.65
2023-02-24T22:24:19.375Z,39.92
2023-02-24T22:27:24.514Z,35.35
2023-02-24T22:30:30.046Z,33.95
2023-02-24T22:33:38.089Z,36.35
2023-02-24T22:36:43.548Z,35.60
2023-02-24T22:39:51.358Z,34.75
2023-02-24T22:42:56.541Z,30.05
2023-02-24T22:46:02.373Z,36.25
2023-02-24T22:49:08.259Z,32.72
2023-02-24T22:52:16.958Z,35.20
2023-02-24T22:55:25.429Z,34.08
2023-02-24T22:58:30.797Z,28.95
2023-02-24T23:01:37.681Z,33.55
2023-02-24T23:04:44.191Z,31.52
2023-02-24T23:07:49.440Z,33.47
2023-02-24T23:10:57.645Z,33.38
2023-02-24T23:14:03.991Z,32.85
2023-02-24T23:17:09.093Z,30.88
2023-02-24T23:20:15.636Z,31.80
2023-02-24T23:23:21.049Z,33.50
2023-02-24T23:26:30.778Z,33.55
2023-02-24T23:29:36.835Z,34.35
2023-02-24T23:32:44.102Z,35.35
2023-02-24T23:35:50.154Z,34.83
2023-02-24T23:38:55.445Z,36.90
2023-02-24T23:42:03.341Z,33.03
2023-02-24T23:45:09.622Z,31.83
2023-02-24T23:48:15.979Z,33.95
2023-02-24T23:51:21.350Z,31.70
2023-02-24T23:54:26.589Z,30.83
2023-02-24T23:57:34.595Z,31.55
